Time;durP1;ratioP1;P1;durP2;ratioP2;P2;SDS_P1;SDS_P2;PMS_P1;PMS_P2;Temp;Humidity;BMP_temperature;BMP_pressure;BME280_temperature;BME280_humidity;BME280_pressure;Samples;Min_cycle;Max_cycle;Signal;HPM_P1;HPM_P2
2022/07/28 00:01:26;;;;;;;1.20;1.10;;;23.00;37.80;;;;;;5127147;27;20547;-91
2022/07/28 00:04:44;;;;;;;4.63;1.33;;;22.90;37.90;;;;;;5113863;27;20487;-89
2022/07/28 00:07:35;;;;;;;3.77;1.30;;;22.80;38.30;;;;;;5101105;27;20433;-90
2022/07/28 00:10:53;;;;;;;1.67;1.00;;;22.80;38.30;;;;;;5115047;27;20465;-90
2022/07/28 00:14:10;;;;;;;2.13;1.40;;;22.70;38.50;;;;;;5130203;27;20461;-90
2022/07/28 00:16:39;;;;;;;1.57;1.10;;;22.70;38.60;;;;;;5130957;27;20463;-91
2022/07/28 00:19:06;;;;;;;1.83;1.10;;;22.70;38.60;;;;;;5115898;27;20960;-89
2022/07/28 00:21:33;;;;;;;3.60;2.03;;;22.70;38.50;;;;;;5131758;27;20667;-89
2022/07/28 00:23:59;;;;;;;1.83;1.20;;;22.70;38.40;;;;;;5119006;27;20982;-90
2022/07/28 00:26:27;;;;;;;4.33;2.00;;;22.70;38.60;;;;;;5134814;27;20448;-90
2022/07/28 00:28:53;;;;;;;1.47;1.37;;;22.70;38.30;;;;;;5140360;27;20463;-89
2022/07/28 00:35:54;;;;;;;1.30;1.20;;;22.50;38.90;;;;;;5131934;27;20413;-90
2022/07/28 00:38:21;;;;;;;1.23;1.13;;;22.40;39.30;;;;;;5093461;27;21033;-89
2022/07/28 00:43:49;;;;;;;1.50;1.40;;;22.40;39.80;;;;;;4954190;28;20468;-89
2022/07/28 00:46:19;;;;;;;3.00;1.33;;;22.30;40.00;;;;;;4960097;28;20452;-91
2022/07/28 00:48:49;;;;;;;1.10;1.00;;;22.30;39.90;;;;;;5019081;27;20464;-92
2022/07/28 00:51:18;;;;;;;1.43;1.13;;;22.20;39.80;;;;;;5131098;27;20443;-90
2022/07/28 00:53:46;;;;;;;1.40;1.30;;;22.30;39.60;;;;;;5114732;27;21002;-90
2022/07/28 01:00:20;;;;;;;5.30;1.40;;;22.20;39.70;;;;;;5130774;27;21179;-90
2022/07/28 01:02:47;;;;;;;1.70;1.13;;;22.20;40.10;;;;;;5133121;27;20433;-88
2022/07/28 01:05:15;;;;;;;2.60;1.20;;;22.10;40.20;;;;;;5100558;27;20449;-90
2022/07/28 01:07:49;;;;;;;2.17;1.33;;;22.00;40.00;;;;;;5100092;27;20449;-90
2022/07/28 01:10:26;;;;;;;1.20;1.10;;;22.00;39.70;;;;;;5127773;27;20452;-90
2022/07/28 01:13:00;;;;;;;4.13;1.20;;;22.00;39.60;;;;;;5121908;27;21168;-89
2022/07/28 01:15:32;;;;;;;1.47;1.20;;;22.00;39.70;;;;;;5126552;27;20576;-90
2022/07/28 01:18:04;;;;;;;3.87;1.27;;;22.00;39.30;;;;;;5114409;27;20448;-90
2022/07/28 01:20:37;;;;;;;1.40;1.10;;;22.00;39.20;;;;;;5130686;27;20466;-90
2022/07/28 01:23:36;;;;;;;2.43;1.30;;;21.90;39.50;;;;;;5138219;27;20542;-90
2022/07/28 01:26:18;;;;;;;1.70;1.40;;;21.70;39.90;;;;;;5125524;27;20449;-89
2022/07/28 01:29:01;;;;;;;1.53;0.90;;;21.80;40.00;;;;;;5114092;27;20478;-90
2022/07/28 01:31:35;;;;;;;4.03;2.13;;;21.80;39.60;;;;;;5126310;27;20450;-91
2022/07/28 01:34:08;;;;;;;1.27;1.17;;;21.90;39.50;;;;;;5131602;27;20551;-89
2022/07/28 01:36:41;;;;;;;1.80;1.00;;;21.90;39.40;;;;;;5095887;27;20528;-90
2022/07/28 01:39:10;;;;;;;1.30;1.20;;;21.90;39.60;;;;;;5118242;27;20437;-88
2022/07/28 01:46:10;;;;;;;1.50;1.40;;;21.80;40.10;;;;;;5122209;27;20428;-89
2022/07/28 01:48:41;;;;;;;1.40;1.30;;;21.70;40.20;;;;;;5102864;27;20494;-90
2022/07/28 01:51:09;;;;;;;1.20;1.10;;;21.70;40.00;;;;;;5102407;27;20460;-88
2022/07/28 01:54:27;;;;;;;1.60;1.33;;;21.70;40.10;;;;;;5132773;27;21283;-90
2022/07/28 02:01:05;;;;;;;1.40;0.90;;;21.60;40.00;;;;;;5113201;27;20413;-91
2022/07/28 02:03:34;;;;;;;5.57;1.03;;;21.60;40.60;;;;;;5127840;27;20473;-89
2022/07/28 02:06:04;;;;;;;4.60;1.13;;;21.50;40.50;;;;;;5102032;27;20444;-90
2022/07/28 02:08:33;;;;;;;2.90;1.00;;;21.50;40.50;;;;;;5129103;27;20441;-90
2022/07/28 02:13:47;;;;;;;1.13;1.00;;;21.50;40.30;;;;;;5147524;27;20465;-90
2022/07/28 02:16:17;;;;;;;2.70;1.00;;;21.50;40.40;;;;;;5126716;27;20445;-90
2022/07/28 02:18:46;;;;;;;1.20;1.10;;;21.40;40.90;;;;;;5084896;27;20730;-90
2022/07/28 02:24:57;;;;;;;1.13;1.03;;;21.30;40.70;;;;;;5123744;27;20461;-89
2022/07/28 02:27:33;;;;;;;1.73;1.47;;;21.30;41.00;;;;;;5111528;27;20544;-91
2022/07/28 02:30:04;;;;;;;1.37;1.27;;;21.30;40.70;;;;;;5143504;27;20476;-90
2022/07/28 02:32:38;;;;;;;2.60;1.10;;;21.30;40.50;;;;;;5123551;27;20455;-89
2022/07/28 02:35:09;;;;;;;3.77;1.00;;;21.30;40.60;;;;;;5113817;27;20459;-89
2022/07/28 02:37:39;;;;;;;1.40;1.27;;;21.30;40.30;;;;;;5128409;27;21307;-90
2022/07/28 02:40:12;;;;;;;1.47;1.10;;;21.30;40.10;;;;;;5120782;27;20452;-89
2022/07/28 02:42:41;;;;;;;1.37;1.27;;;21.30;40.10;;;;;;5123337;27;20441;-90
2022/07/28 02:45:11;;;;;;;2.17;1.20;;;21.30;40.30;;;;;;5131388;27;20731;-89
2022/07/28 02:51:48;;;;;;;1.13;1.00;;;21.20;40.10;;;;;;5112103;27;20424;-89
2022/07/28 02:54:18;;;;;;;2.60;1.07;;;21.20;40.00;;;;;;5129308;27;20460;-90
2022/07/28 03:05:02;;;;;;;10.17;1.10;;;21.00;41.00;;;;;;5104215;27;20448;-90
2022/07/28 03:07:32;;;;;;;4.00;1.07;;;20.90;41.50;;;;;;5079391;27;20516;-90
2022/07/28 03:10:00;;;;;;;5.60;1.30;;;20.90;41.40;;;;;;5108459;27;20464;-89
2022/07/28 03:12:27;;;;;;;2.50;1.57;;;20.90;41.80;;;;;;5115949;27;20453;-89
2022/07/28 03:14:55;;;;;;;4.60;1.80;;;20.90;41.50;;;;;;5100534;27;20487;-91
2022/07/28 03:17:22;;;;;;;1.23;1.00;;;21.00;41.30;;;;;;5100304;27;20457;-91
2022/07/28 03:19:49;;;;;;;1.20;1.10;;;20.90;41.40;;;;;;5109726;27;20440;-89
2022/07/28 03:22:16;;;;;;;2.03;1.30;;;20.90;41.50;;;;;;5122286;27;20448;-90
2022/07/28 03:28:52;;;;;;;2.53;1.60;;;20.90;41.70;;;;;;5124740;27;21093;-89
2022/07/28 03:31:20;;;;;;;2.20;1.27;;;20.90;41.70;;;;;;5106472;27;20468;-90
2022/07/28 03:34:16;;;;;;;5.07;1.37;;;20.90;41.00;;;;;;5120602;27;20541;-89
2022/07/28 03:36:47;;;;;;;4.63;1.27;;;20.80;41.20;;;;;;5113761;27;20433;-89
2022/07/28 03:39:17;;;;;;;3.70;1.60;;;20.80;41.30;;;;;;5123267;27;20456;-89
2022/07/28 03:41:45;;;;;;;1.30;1.20;;;20.80;41.30;;;;;;5107575;27;20467;-89
2022/07/28 03:44:39;;;;;;;2.50;1.20;;;20.90;41.60;;;;;;5098767;27;20504;-89
2022/07/28 03:47:07;;;;;;;2.27;1.30;;;20.90;41.50;;;;;;5108486;27;20436;-89
2022/07/28 03:49:34;;;;;;;2.60;1.50;;;21.00;41.80;;;;;;5125593;27;20476;-89
2022/07/28 03:52:01;;;;;;;1.10;1.00;;;21.00;42.00;;;;;;5107250;27;20452;-90
2022/07/28 03:54:28;;;;;;;1.87;1.10;;;20.90;42.00;;;;;;5089087;27;20496;-90
2022/07/28 03:56:55;;;;;;;1.47;1.37;;;21.00;42.50;;;;;;5090665;27;20447;-89
2022/07/28 03:59:22;;;;;;;4.53;1.20;;;20.90;41.90;;;;;;5108037;27;20479;-90
2022/07/28 04:02:17;;;;;;;1.20;1.10;;;20.90;41.60;;;;;;5114472;27;20739;-89
2022/07/28 04:04:44;;;;;;;1.80;1.40;;;20.90;41.20;;;;;;5091179;27;20846;-89
2022/07/28 04:07:11;;;;;;;1.87;1.20;;;20.90;41.40;;;;;;5121388;27;20535;-89
2022/07/28 04:09:38;;;;;;;1.43;1.33;;;20.90;41.60;;;;;;5106772;27;20803;-91
2022/07/28 04:14:56;;;;;;;2.27;1.50;;;20.90;41.70;;;;;;5118599;27;20465;-89
2022/07/28 04:17:24;;;;;;;1.63;1.53;;;20.90;41.40;;;;;;5138126;27;20471;-88
2022/07/28 04:19:51;;;;;;;1.37;1.23;;;20.90;41.90;;;;;;5119283;27;20449;-89
2022/07/28 04:22:18;;;;;;;2.20;1.10;;;20.90;42.10;;;;;;5127219;27;20971;-90
2022/07/28 04:24:45;;;;;;;1.53;1.10;;;20.90;42.00;;;;;;5103207;27;20472;-90
2022/07/28 04:27:12;;;;;;;1.97;1.23;;;20.90;41.70;;;;;;5141488;27;20444;-89
2022/07/28 04:29:39;;;;;;;2.70;1.23;;;20.90;41.50;;;;;;5108334;27;20453;-89
2022/07/28 04:32:33;;;;;;;1.47;1.13;;;20.90;41.60;;;;;;5107625;27;20461;-91
2022/07/28 04:35:00;;;;;;;2.17;1.17;;;20.90;41.80;;;;;;5096163;27;20457;-89
2022/07/28 04:37:27;;;;;;;6.63;1.53;;;20.90;41.70;;;;;;5141273;27;20449;-91
2022/07/28 04:39:54;;;;;;;2.20;1.20;;;21.00;41.90;;;;;;5116047;27;20466;-90
2022/07/28 04:42:21;;;;;;;5.67;1.50;;;21.00;41.90;;;;;;5106819;27;20434;-89
2022/07/28 04:44:48;;;;;;;1.77;1.30;;;21.00;42.10;;;;;;5127050;27;20475;-89
2022/07/28 04:53:29;;;;;;;3.13;1.27;;;21.10;41.80;;;;;;5132269;27;20467;-90
2022/07/28 04:55:56;;;;;;;5.50;1.53;;;21.20;42.00;;;;;;5132363;27;20433;-89
2022/07/28 05:04:56;;;;;;;2.50;1.60;;;21.00;42.70;;;;;;5127189;27;20959;-89
2022/07/28 05:07:24;;;;;;;2.80;1.70;;;21.10;42.50;;;;;;5084669;27;20466;-90
2022/07/28 05:09:51;;;;;;;2.17;1.43;;;21.20;42.80;;;;;;5126065;27;20860;-91
2022/07/28 05:12:18;;;;;;;3.00;1.37;;;21.20;43.00;;;;;;5091020;27;20507;-88
2022/07/28 05:14:46;;;;;;;6.40;1.43;;;21.30;42.40;;;;;;5110230;27;20567;-90
2022/07/28 05:21:21;;;;;;;2.70;1.30;;;21.30;42.20;;;;;;5145814;27;20759;-89
2022/07/28 05:23:49;;;;;;;2.20;1.30;;;21.00;42.00;;;;;;5094228;27;20757;-90
2022/07/28 05:26:17;;;;;;;2.60;1.47;;;21.10;43.10;;;;;;5118114;27;21006;-89
2022/07/28 05:28:44;;;;;;;6.33;1.40;;;21.30;42.90;;;;;;5128349;27;20439;-89
2022/07/28 05:31:11;;;;;;;1.67;1.33;;;21.30;42.10;;;;;;5097903;27;20464;-89
2022/07/28 05:33:37;;;;;;;5.37;1.37;;;21.50;42.50;;;;;;5130694;27;20471;-89
2022/07/28 05:40:38;;;;;;;3.60;1.27;;;21.50;42.30;;;;;;5139098;27;20412;-89
2022/07/28 05:43:05;;;;;;;7.20;1.43;;;21.60;42.20;;;;;;5129390;27;20515;-90
2022/07/28 05:45:33;;;;;;;3.20;1.30;;;21.50;42.60;;;;;;5117005;27;20444;-89
2022/07/28 05:48:00;;;;;;;2.87;1.60;;;21.50;42.70;;;;;;5131234;27;20432;-89
2022/07/28 05:50:27;;;;;;;8.50;1.63;;;21.50;41.90;;;;;;5025533;27;20492;-89
2022/07/28 05:52:54;;;;;;;5.40;2.30;;;21.60;41.90;;;;;;5145856;27;20947;-90
2022/07/28 05:55:21;;;;;;;8.10;2.17;;;21.80;42.50;;;;;;5120499;27;20483;-89
2022/07/28 05:57:49;;;;;;;3.00;1.37;;;21.80;41.90;;;;;;5123119;27;20441;-90
2022/07/28 06:00:18;;;;;;;13.63;2.13;;;21.90;42.80;;;;;;5127912;27;20445;-89
2022/07/28 06:02:47;;;;;;;3.97;1.60;;;22.00;40.30;;;;;;5107789;27;20433;-90
2022/07/28 06:05:15;;;;;;;6.97;1.77;;;21.90;42.00;;;;;;5142670;27;20468;-89
2022/07/28 06:07:43;;;;;;;4.50;1.70;;;21.90;40.50;;;;;;5104698;27;20429;-88
2022/07/28 06:10:10;;;;;;;2.20;1.77;;;22.10;41.70;;;;;;5129442;27;21260;-90
2022/07/28 06:12:41;;;;;;;2.33;1.40;;;22.10;41.80;;;;;;5115253;27;20455;-88
2022/07/28 06:15:12;;;;;;;6.07;2.13;;;22.40;41.00;;;;;;5094779;27;20568;-87
2022/07/28 06:17:39;;;;;;;9.47;1.70;;;22.20;39.40;;;;;;5142872;27;20459;-89
2022/07/28 06:20:07;;;;;;;3.00;1.70;;;22.20;39.80;;;;;;5111835;27;20466;-89
2022/07/28 06:22:41;;;;;;;3.50;1.53;;;22.40;40.50;;;;;;5129441;27;21001;-88
2022/07/28 06:25:12;;;;;;;3.40;1.53;;;22.60;40.00;;;;;;5121592;27;20514;-87
2022/07/28 06:27:39;;;;;;;5.13;1.33;;;22.60;38.70;;;;;;5106800;27;20433;-89
2022/07/28 06:30:07;;;;;;;3.53;1.97;;;22.40;39.40;;;;;;5127767;27;20457;-89
2022/07/28 06:32:35;;;;;;;3.53;1.60;;;22.30;39.70;;;;;;5096752;27;20433;-88
2022/07/28 06:35:03;;;;;;;2.30;1.30;;;22.20;39.00;;;;;;5128936;27;20457;-89
2022/07/28 06:37:30;;;;;;;7.93;2.57;;;22.20;39.10;;;;;;5114326;27;20547;-88
2022/07/28 06:39:57;;;;;;;2.07;1.63;;;22.30;39.50;;;;;;5128632;27;20587;-89
2022/07/28 06:42:24;;;;;;;9.43;2.00;;;22.20;39.50;;;;;;5127382;27;20429;-89
2022/07/28 06:44:51;;;;;;;2.57;1.50;;;22.30;39.60;;;;;;5142850;27;20491;-89
2022/07/28 06:48:09;;;;;;;3.67;1.37;;;22.40;39.40;;;;;;5104292;27;20437;-89
2022/07/28 06:51:02;;;;;;;4.60;2.13;;;22.50;39.00;;;;;;5116488;27;20444;-92
2022/07/28 06:53:29;;;;;;;3.60;1.40;;;22.50;39.40;;;;;;5146027;27;20460;-88
2022/07/28 06:55:56;;;;;;;2.40;1.70;;;22.60;39.00;;;;;;5090299;27;20446;-89
2022/07/28 06:58:23;;;;;;;2.60;1.60;;;22.80;38.60;;;;;;5128671;27;20445;-89
2022/07/28 07:00:50;;;;;;;1.80;1.70;;;23.00;39.10;;;;;;5148208;27;20476;-90
2022/07/28 07:03:17;;;;;;;3.23;1.40;;;23.00;38.90;;;;;;5141905;27;20475;-88
2022/07/28 07:05:44;;;;;;;1.87;1.40;;;23.10;38.80;;;;;;5124526;27;20445;-88
2022/07/28 07:08:12;;;;;;;3.13;1.80;;;23.10;38.30;;;;;;5127250;27;20528;-88
2022/07/28 07:10:39;;;;;;;2.03;1.70;;;23.00;38.60;;;;;;5140290;27;20460;-89
2022/07/28 07:13:06;;;;;;;2.63;2.00;;;23.10;39.30;;;;;;5127783;27;20795;-89
2022/07/28 07:15:33;;;;;;;2.33;2.10;;;23.20;39.30;;;;;;5146863;27;20448;-89
2022/07/28 07:18:00;;;;;;;3.43;1.70;;;23.30;39.10;;;;;;5128516;27;20541;-90
2022/07/28 07:20:27;;;;;;;3.73;1.70;;;23.30;38.90;;;;;;5110161;27;20509;-88
2022/07/28 07:22:54;;;;;;;3.53;1.60;;;23.50;38.80;;;;;;5106419;27;20456;-89
2022/07/28 07:25:22;;;;;;;2.00;1.73;;;23.50;38.50;;;;;;5126200;27;20529;-90
2022/07/28 07:27:49;;;;;;;2.03;1.70;;;23.60;38.40;;;;;;5113636;27;20459;-89
2022/07/28 07:30:17;;;;;;;2.40;1.83;;;23.90;38.40;;;;;;5111653;27;20551;-89
2022/07/28 07:32:44;;;;;;;7.07;1.73;;;24.00;38.40;;;;;;5110196;27;20486;-88
2022/07/28 07:35:12;;;;;;;2.13;1.60;;;24.10;38.40;;;;;;5129145;27;21026;-90
2022/07/28 07:37:40;;;;;;;6.07;1.90;;;24.20;38.30;;;;;;5127076;27;20522;-88
2022/07/28 07:40:08;;;;;;;8.17;1.50;;;24.10;38.10;;;;;;5127169;27;20460;-90
2022/07/28 07:42:37;;;;;;;3.17;2.00;;;24.20;37.60;;;;;;5107351;27;21138;-90
2022/07/28 07:45:05;;;;;;;3.60;2.00;;;24.30;38.10;;;;;;5127539;27;20955;-89
2022/07/28 07:51:40;;;;;;;1.97;1.77;;;24.50;37.70;;;;;;5127768;27;20453;-90
2022/07/28 07:54:07;;;;;;;1.83;1.60;;;24.50;37.80;;;;;;5106114;27;20905;-89
2022/07/28 07:56:34;;;;;;;7.60;2.00;;;24.80;37.30;;;;;;5125834;27;20805;-89
2022/07/28 07:59:02;;;;;;;1.70;1.60;;;24.80;37.50;;;;;;5126419;27;20806;-90
2022/07/28 08:01:29;;;;;;;3.57;2.27;;;25.10;37.10;;;;;;5125445;27;20437;-88
2022/07/28 08:03:58;;;;;;;2.00;1.90;;;25.30;36.60;;;;;;5124766;27;20746;-90
2022/07/28 08:06:26;;;;;;;4.27;2.07;;;25.30;36.70;;;;;;5137904;27;20975;-88
2022/07/28 08:08:53;;;;;;;4.67;2.07;;;25.30;36.90;;;;;;5094050;27;20446;-90
2022/07/28 08:11:20;;;;;;;2.53;2.00;;;25.50;37.60;;;;;;5109106;27;20559;-88
2022/07/28 08:14:38;;;;;;;4.87;2.07;;;25.60;36.30;;;;;;5122683;27;20464;-89
2022/07/28 08:22:28;;;;;;;3.83;2.07;;;25.50;36.70;;;;;;5123623;27;20423;-89
2022/07/28 08:24:56;;;;;;;2.87;2.13;;;25.50;36.90;;;;;;5101879;27;20548;-90
2022/07/28 08:27:23;;;;;;;3.17;2.27;;;25.50;36.60;;;;;;5114526;27;20449;-90
2022/07/28 08:29:50;;;;;;;2.40;2.20;;;25.50;37.10;;;;;;5128100;27;20449;-89
2022/07/28 08:32:17;;;;;;;3.60;1.77;;;25.60;36.50;;;;;;5090861;27;20499;-90
2022/07/28 08:34:44;;;;;;;2.10;1.90;;;25.60;36.50;;;;;;5128615;27;20468;-90
2022/07/28 08:37:11;;;;;;;5.63;1.93;;;25.60;36.60;;;;;;5115694;27;20453;-89
2022/07/28 08:39:38;;;;;;;3.37;1.87;;;25.80;37.50;;;;;;5111412;27;20474;-88
2022/07/28 08:42:12;;;;;;;4.43;2.23;;;26.00;36.20;;;;;;5146896;27;20818;-88
2022/07/28 08:44:49;;;;;;;2.27;1.80;;;26.20;36.20;;;;;;5108043;27;20482;-89
2022/07/28 08:47:17;;;;;;;3.13;2.40;;;26.60;36.20;;;;;;5145814;27;20463;-89
2022/07/28 08:58:02;;;;;;;4.03;1.63;;;27.40;34.50;;;;;;5113254;27;20464;-89
2022/07/28 09:00:30;;;;;;;5.37;1.90;;;27.30;34.10;;;;;;5128259;27;20814;-88
2022/07/28 09:02:57;;;;;;;2.80;1.70;;;27.30;34.60;;;;;;5132848;27;20455;-89
2022/07/28 09:05:24;;;;;;;12.33;2.80;;;27.50;33.50;;;;;;5121870;27;20449;-89
2022/07/28 09:07:54;;;;;;;2.20;2.00;;;27.40;33.40;;;;;;5126519;27;20440;-89
2022/07/28 09:10:21;;;;;;;6.87;2.07;;;27.20;33.80;;;;;;5098373;27;21243;-89
2022/07/28 09:12:48;;;;;;;3.40;2.27;;;27.40;34.50;;;;;;5129654;27;20584;-89
2022/07/28 09:15:16;;;;;;;5.30;2.20;;;27.60;34.10;;;;;;5115085;27;20931;-89
2022/07/28 09:17:43;;;;;;;3.37;1.97;;;27.70;33.70;;;;;;5086014;27;20433;-88
2022/07/28 09:20:11;;;;;;;4.50;2.60;;;27.90;33.20;;;;;;5106756;27;20440;-89
2022/07/28 09:22:54;;;;;;;7.10;2.77;;;28.00;32.90;;;;;;5129044;27;20448;-88
2022/07/28 09:25:21;;;;;;;5.30;2.30;;;28.00;33.50;;;;;;5125416;27;20565;-89
2022/07/28 09:27:48;;;;;;;2.90;2.13;;;28.30;33.50;;;;;;5127575;27;20556;-89
2022/07/28 09:30:19;;;;;;;3.80;2.20;;;28.40;32.20;;;;;;5110770;27;20460;-89
2022/07/28 09:32:46;;;;;;;1.83;1.70;;;28.40;32.40;;;;;;5130066;27;20465;-90
2022/07/28 09:35:19;;;;;;;4.40;2.17;;;28.60;31.60;;;;;;5092316;27;20477;-90
2022/07/28 09:37:46;;;;;;;4.73;2.40;;;28.60;30.60;;;;;;5129193;27;20460;-89
2022/07/28 09:40:14;;;;;;;2.60;1.93;;;28.50;31.60;;;;;;5125400;27;20920;-89
2022/07/28 09:42:46;;;;;;;3.57;2.07;;;28.70;31.40;;;;;;5109334;27;20442;-89
2022/07/28 09:45:13;;;;;;;3.00;1.90;;;28.90;30.90;;;;;;5127715;27;20597;-88
2022/07/28 09:47:42;;;;;;;4.50;1.93;;;28.70;30.90;;;;;;5127957;27;20864;-89
2022/07/28 09:50:20;;;;;;;2.50;1.80;;;28.60;31.90;;;;;;5082939;27;20828;-89
2022/07/28 09:52:47;;;;;;;2.70;2.07;;;28.70;32.30;;;;;;5125682;27;20963;-89
2022/07/28 09:55:14;;;;;;;1.90;1.80;;;28.80;31.20;;;;;;5124634;27;20552;-88
2022/07/28 09:58:31;;;;;;;5.93;2.40;;;28.70;31.00;;;;;;5127836;27;20510;-88
2022/07/28 10:01:24;;;;;;;4.60;2.30;;;29.40;30.90;;;;;;5129039;27;20545;-89
2022/07/28 10:03:56;;;;;;;3.80;2.33;;;29.60;30.80;;;;;;5127107;27;20465;-88
2022/07/28 10:06:28;;;;;;;1.77;1.63;;;30.00;29.70;;;;;;5116519;27;20509;-89
2022/07/28 10:08:57;;;;;;;4.27;1.93;;;30.30;29.30;;;;;;5092536;27;20961;-89
2022/07/28 10:11:26;;;;;;;1.80;1.70;;;30.20;29.00;;;;;;5143666;27;20472;-89
2022/07/28 10:13:58;;;;;;;2.47;1.90;;;30.00;29.70;;;;;;5116754;27;20476;-88
2022/07/28 10:16:28;;;;;;;2.53;1.70;;;30.20;28.70;;;;;;5127031;27;20437;-89
2022/07/28 10:18:58;;;;;;;2.87;2.13;;;30.40;28.50;;;;;;5140012;27;20461;-88
2022/07/28 10:21:27;;;;;;;2.33;2.13;;;30.50;28.30;;;;;;5105916;27;20533;-88
2022/07/28 10:24:20;;;;;;;3.47;2.10;;;30.70;28.50;;;;;;5109263;27;20468;-87
2022/07/28 10:26:48;;;;;;;4.87;1.90;;;30.70;27.60;;;;;;5136297;27;21139;-87
2022/07/28 10:29:17;;;;;;;3.93;2.10;;;31.00;27.40;;;;;;5143857;27;20458;-87
2022/07/28 10:31:49;;;;;;;3.40;1.90;;;31.10;27.40;;;;;;5135065;27;20515;-90
2022/07/28 10:34:22;;;;;;;2.63;1.83;;;31.20;27.50;;;;;;5121845;27;20473;-88
2022/07/28 10:36:50;;;;;;;3.17;1.80;;;31.10;27.00;;;;;;5137915;27;20465;-87
2022/07/28 10:39:20;;;;;;;2.30;2.07;;;30.80;27.80;;;;;;5138721;27;20457;-88
2022/07/28 10:41:47;;;;;;;3.10;1.90;;;31.30;27.20;;;;;;5139959;27;20441;-88
2022/07/28 10:44:16;;;;;;;2.93;2.10;;;31.30;27.10;;;;;;5138991;27;20497;-89
2022/07/28 10:46:44;;;;;;;8.30;1.93;;;31.60;26.80;;;;;;5113911;27;21271;-90
2022/07/28 10:49:14;;;;;;;2.27;1.80;;;31.50;26.90;;;;;;5116705;27;20441;-88
2022/07/28 10:54:49;;;;;;;3.67;1.60;;;31.30;27.70;;;;;;5124285;27;20958;-89
2022/07/28 10:57:18;;;;;;;3.30;1.80;;;31.40;26.40;;;;;;5107016;27;20440;-88
2022/07/28 11:00:16;;;;;;;2.20;2.00;;;31.70;27.50;;;;;;5121772;27;20452;-89
2022/07/28 11:02:46;;;;;;;4.00;2.30;;;32.00;26.10;;;;;;5141795;27;20457;-87
2022/07/28 11:05:39;;;;;;;8.93;2.63;;;32.40;26.40;;;;;;5120870;27;20476;-88
2022/07/28 11:08:33;;;;;;;4.30;2.10;;;32.80;25.70;;;;;;5139455;27;20441;-88
2022/07/28 11:11:00;;;;;;;3.13;2.10;;;32.50;25.40;;;;;;5105455;27;21290;-88
2022/07/28 11:13:31;;;;;;;2.23;2.03;;;32.20;25.80;;;;;;5127565;27;21047;-87
2022/07/28 11:16:18;;;;;;;5.73;2.50;;;32.40;25.60;;;;;;5121370;27;20457;-88
2022/07/28 11:19:04;;;;;;;2.27;1.73;;;32.70;25.90;;;;;;5122849;27;20536;-88
2022/07/28 11:21:31;;;;;;;2.50;2.30;;;32.80;25.20;;;;;;5140660;27;20469;-88
2022/07/28 11:24:25;;;;;;;3.43;1.90;;;32.50;25.30;;;;;;5121344;27;21108;-89
2022/07/28 11:26:53;;;;;;;3.83;2.03;;;32.40;25.50;;;;;;5124218;27;20797;-88
2022/07/28 11:29:23;;;;;;;2.00;1.87;;;32.10;25.10;;;;;;5119700;27;20453;-88
2022/07/28 11:31:57;;;;;;;4.70;1.87;;;32.40;25.10;;;;;;5124366;27;20468;-90
2022/07/28 11:38:31;;;;;;;3.00;2.17;;;32.00;25.60;;;;;;5119895;27;20429;-87
2022/07/28 11:45:32;;;;;;;2.10;2.00;;;31.40;26.10;;;;;;5139973;27;20451;-88
2022/07/28 11:48:13;;;;;;;2.90;1.90;;;31.50;26.60;;;;;;5140654;27;20433;-88
2022/07/28 11:50:41;;;;;;;2.20;1.93;;;31.90;26.40;;;;;;5134302;27;20987;-89
2022/07/28 11:53:09;;;;;;;3.83;2.03;;;32.50;26.20;;;;;;5106835;27;21014;-86
2022/07/28 11:55:36;;;;;;;6.77;2.33;;;32.40;24.90;;;;;;5123984;27;20444;-88
2022/07/28 12:06:20;;;;;;;2.53;1.90;;;31.80;26.00;;;;;;5138698;27;20493;-88
2022/07/28 12:08:50;;;;;;;4.13;2.47;;;31.70;26.10;;;;;;5112728;27;20449;-88
2022/07/28 12:11:18;;;;;;;3.20;1.93;;;31.50;25.80;;;;;;5096681;27;20445;-88
2022/07/28 12:13:45;;;;;;;4.00;2.43;;;31.30;26.10;;;;;;5107291;27;20468;-88
2022/07/28 12:16:13;;;;;;;3.30;2.13;;;31.70;26.60;;;;;;5122206;27;20524;-88
2022/07/28 12:18:40;;;;;;;4.63;2.57;;;31.90;25.80;;;;;;5142628;27;20452;-89
2022/07/28 12:21:07;;;;;;;2.60;1.60;;;32.00;26.50;;;;;;5123741;27;20445;-88
2022/07/28 12:23:36;;;;;;;5.40;2.27;;;32.00;26.30;;;;;;5127334;27;21160;-89
2022/07/28 12:32:11;;;;;;;1.83;1.73;;;32.10;25.80;;;;;;5121370;27;20460;-90
2022/07/28 12:34:39;;;;;;;2.13;1.90;;;32.00;26.10;;;;;;5095487;27;20490;-89
2022/07/28 12:37:08;;;;;;;1.83;1.60;;;32.10;26.20;;;;;;5127855;27;20481;-90
2022/07/28 12:39:40;;;;;;;1.93;1.83;;;32.20;25.50;;;;;;5123486;27;20506;-87
2022/07/28 12:42:09;;;;;;;2.40;2.20;;;32.00;25.50;;;;;;5114736;27;20454;-91
2022/07/28 12:44:37;;;;;;;1.93;1.83;;;31.80;26.10;;;;;;5124282;27;20568;-89
2022/07/28 12:47:07;;;;;;;4.77;2.13;;;31.80;25.80;;;;;;5124817;27;20457;-89
2022/07/28 12:50:24;;;;;;;5.77;2.37;;;31.70;25.70;;;;;;5105073;27;20956;-89
2022/07/28 12:53:16;;;;;;;4.30;2.00;;;31.50;26.10;;;;;;5122384;27;20936;-89
2022/07/28 12:55:45;;;;;;;2.60;1.87;;;31.50;26.50;;;;;;5124278;27;20440;-88
2022/07/28 12:58:23;;;;;;;2.40;2.10;;;31.80;26.60;;;;;;5140072;27;20476;-89
2022/07/28 13:05:30;;;;;;;2.67;1.80;;;32.10;25.40;;;;;;5114909;27;20447;-89
2022/07/28 13:07:59;;;;;;;4.40;2.10;;;32.20;25.60;;;;;;5045332;27;20477;-88
2022/07/28 13:10:28;;;;;;;3.03;2.10;;;32.30;25.80;;;;;;5142119;27;20459;-87
2022/07/28 13:13:05;;;;;;;2.90;2.40;;;32.30;25.40;;;;;;5146300;27;20480;-88
2022/07/28 13:15:32;;;;;;;1.93;1.80;;;32.60;25.80;;;;;;5122897;27;20456;-88
2022/07/28 13:17:59;;;;;;;2.73;1.97;;;32.60;25.20;;;;;;5113628;27;20457;-90
2022/07/28 13:20:26;;;;;;;2.17;2.00;;;32.60;25.30;;;;;;5140610;27;20525;-88
2022/07/28 13:22:56;;;;;;;7.43;2.20;;;32.60;25.10;;;;;;5124835;27;20486;-87
2022/07/28 13:25:23;;;;;;;3.10;2.03;;;32.70;24.70;;;;;;5145338;27;21048;-87
2022/07/28 13:27:50;;;;;;;4.13;1.97;;;32.90;25.10;;;;;;5114068;27;20456;-88
2022/07/28 13:30:18;;;;;;;6.17;2.00;;;33.30;25.60;;;;;;5111180;27;20799;-86
2022/07/28 13:32:45;;;;;;;2.37;1.60;;;33.30;24.20;;;;;;5127208;27;20541;-88
2022/07/28 13:35:12;;;;;;;2.20;1.80;;;33.30;24.50;;;;;;5126164;27;20457;-89
2022/07/28 13:37:39;;;;;;;3.00;1.70;;;33.50;24.50;;;;;;5143197;27;20441;-87
2022/07/28 13:40:07;;;;;;;2.33;2.07;;;33.50;24.50;;;;;;5141554;27;20437;-88
2022/07/28 13:42:34;;;;;;;2.70;2.00;;;33.30;24.50;;;;;;5123160;27;20448;-87
2022/07/28 13:45:01;;;;;;;2.50;2.30;;;33.00;24.50;;;;;;5145702;27;20714;-89
2022/07/28 13:47:29;;;;;;;5.20;2.10;;;32.90;24.40;;;;;;5109126;27;20525;-87
2022/07/28 13:49:56;;;;;;;3.20;2.07;;;32.80;24.90;;;;;;5145236;27;20791;-89
2022/07/28 13:52:23;;;;;;;2.60;2.10;;;32.90;25.00;;;;;;5126818;27;20452;-89
2022/07/28 13:54:50;;;;;;;2.70;1.70;;;33.30;24.00;;;;;;5125739;27;20483;-87
2022/07/28 14:01:24;;;;;;;6.10;2.50;;;33.00;24.80;;;;;;5144240;27;20425;-87
2022/07/28 14:03:52;;;;;;;5.83;2.13;;;33.10;24.60;;;;;;5106003;27;20478;-88
2022/07/28 14:06:21;;;;;;;3.50;1.60;;;33.30;24.50;;;;;;5117039;27;20501;-88
2022/07/28 14:08:48;;;;;;;2.87;2.00;;;33.40;24.50;;;;;;5097243;27;20449;-90
2022/07/28 14:11:15;;;;;;;7.27;2.13;;;33.20;24.10;;;;;;5123675;27;20448;-88
2022/07/28 14:13:42;;;;;;;1.97;1.87;;;33.00;24.30;;;;;;5124772;27;20501;-89
2022/07/28 14:16:09;;;;;;;6.13;2.00;;;33.20;24.70;;;;;;5123283;27;20904;-87
2022/07/28 14:18:37;;;;;;;3.73;2.00;;;33.30;24.10;;;;;;5123760;27;20456;-88
2022/07/28 14:21:05;;;;;;;3.00;2.07;;;33.30;23.80;;;;;;5123103;27;20766;-87
2022/07/28 14:23:32;;;;;;;2.10;2.00;;;33.20;24.40;;;;;;5106754;27;20467;-88
2022/07/28 14:25:59;;;;;;;3.03;2.20;;;33.30;24.40;;;;;;5123788;27;20457;-87
2022/07/28 14:28:26;;;;;;;2.20;2.00;;;33.20;24.30;;;;;;5124305;27;20453;-87
2022/07/28 14:30:53;;;;;;;2.10;1.90;;;33.20;24.80;;;;;;5106457;27;20441;-87
2022/07/28 14:33:20;;;;;;;3.70;2.00;;;33.40;24.60;;;;;;5123945;27;20476;-88
2022/07/28 14:35:48;;;;;;;2.60;2.40;;;33.60;23.70;;;;;;5141420;27;20475;-87
2022/07/28 14:38:16;;;;;;;2.07;1.93;;;33.50;23.50;;;;;;5125355;27;20464;-87
2022/07/28 14:40:43;;;;;;;4.97;1.57;;;33.40;24.10;;;;;;5076450;27;20445;-86
2022/07/28 14:43:10;;;;;;;3.40;2.13;;;33.40;24.40;;;;;;5140047;27;20433;-88
2022/07/28 14:45:37;;;;;;;4.13;2.00;;;33.30;24.00;;;;;;5122522;27;20448;-86
2022/07/28 14:48:55;;;;;;;2.37;1.83;;;33.00;25.20;;;;;;5100140;27;20453;-89
2022/07/28 14:51:47;;;;;;;3.80;2.30;;;33.30;25.00;;;;;;5118582;27;20515;-87
2022/07/28 14:54:16;;;;;;;4.00;2.30;;;33.40;24.20;;;;;;5083373;27;20588;-87
2022/07/28 14:56:43;;;;;;;1.97;1.80;;;33.50;24.60;;;;;;5104984;27;20445;-87
2022/07/28 14:59:10;;;;;;;4.63;2.53;;;33.40;24.20;;;;;;5121561;27;20506;-87
2022/07/28 15:01:37;;;;;;;2.47;1.93;;;33.20;24.10;;;;;;5104456;27;20469;-87
2022/07/28 15:04:04;;;;;;;2.50;2.30;;;33.20;24.80;;;;;;5092245;27;20944;-87
2022/07/28 15:06:31;;;;;;;3.77;1.70;;;33.20;24.60;;;;;;5098441;27;20446;-86